Latest Weather Observations for Mount Lofty

IDS60901

Issued at 6:51 pm CST Monday 4 July 2022 (issued every 10 minutes, with the page automatically refreshed every 10 minutes)

About weather observations | Map of Adelaide area stations | Latest observations for Adelaide area | Other Formats
Station Details ID: 023842 Name: MOUNT LOFTY Lat: -34.98 Lon: 138.71 Height: 685.0 m
Data from the previous 72 hours. | See also: Recent months at Mount Lofty
Date/Time
CST
Temp
°C
App
Temp
°C
Dew
Point
°C
Rel
Hum
%
Delta-T
°C
Wind Press
QNH
hPa
Press
MSL
hPa
Rain since
9am
mm
Dir  Spd
km/h
Gust
km/h
Spd
kts
Gust
kts
04/06:30pm 7.2 3.6 6.9 98 0.1 SE 15 35 8 19 - - 0.0
04/06:00pm 7.2 3.6 6.8 97 0.2 ESE 15 28 8 15 - - 0.0
04/05:30pm 7.3 4.4 6.7 96 0.3 SE 11 24 6 13 - - 0.0
04/05:00pm 7.5 5.0 6.4 93 0.5 SE 9 20 5 11 - - 0.0
04/04:30pm 7.9 5.4 6.4 90 0.7 ESE 9 24 5 13 - - 0.0
04/04:00pm 8.4 5.5 6.4 87 1.0 SE 11 26 6 14 - - 0.0
04/03:30pm 8.3 5.7 5.9 85 1.1 SE 9 30 5 16 - - 0.0
04/03:00pm 8.7 5.7 5.8 82 1.4 SE 11 26 6 14 - - 0.0
04/02:30pm 8.5 5.0 5.6 82 1.4 SE 13 28 7 15 - - 0.0
04/02:00pm 8.4 5.0 5.7 83 1.3 SE 13 32 7 17 - - 0.0
04/01:30pm 8.5 4.6 5.3 80 1.5 SE 15 35 8 19 - - 0.0
04/01:00pm 8.0 3.3 5.3 83 1.3 SE 19 43 10 23 - - 0.0
04/12:30pm 7.7 2.9 5.7 87 0.9 ESE 20 39 11 21 - - 0.0
04/12:00pm 7.4 2.8 5.5 88 0.9 SE 19 48 10 26 - - 0.0
04/11:30am 6.6 1.9 5.2 91 0.6 ESE 19 50 10 27 - - 0.0
04/11:00am 6.4 1.7 6.0 97 0.2 SE 20 43 11 23 - - 0.0
04/10:30am 6.0 0.9 5.9 99 0.0 ESE 22 46 12 25 - - 0.0
04/10:00am 5.5 -0.1 5.4 99 0.0 ESE 24 46 13 25 - - 0.0
04/09:30am 5.5 -0.5 5.4 99 0.0 ESE 26 54 14 29 - - 0.0
04/09:00am 5.2 -0.5 5.1 99 0.0 ESE 24 46 13 25 - - 0.0
04/08:30am 5.0 -0.4 4.7 98 0.1 ESE 22 43 12 23 - - 0.0
04/08:00am 4.8 0.0 4.4 97 0.2 ESE 19 39 10 21 - - 0.0
04/07:30am 4.8 0.2 3.8 93 0.4 SE 17 32 9 17 - - 0.0
04/07:00am 4.9 0.6 3.2 89 0.7 SE 15 32 8 17 - - 0.0
04/06:30am 4.7 0.0 3.0 89 0.7 ESE 17 35 9 19 - - 0.0
04/06:00am 4.2 -1.0 2.6 89 0.7 ESE 19 37 10 20 - - 0.0
04/05:30am 4.2 -1.1 2.1 86 0.9 ESE 19 37 10 20 - - 0.0
04/05:00am 4.2 -1.1 1.9 85 1.0 SE 19 43 10 23 - - 0.0
04/04:30am 4.0 -0.5 1.9 86 0.9 SE 15 41 8 22 - - 0.0
04/04:00am 4.0 -1.5 2.0 87 0.8 ESE 20 41 11 22 - - 0.0
04/03:30am 3.9 -1.5 2.3 89 0.7 ESE 20 39 11 21 - - 0.0
04/03:00am 3.9 -1.3 2.4 90 0.6 ESE 19 35 10 19 - - 0.0
04/02:30am 3.8 -1.0 2.6 92 0.5 ESE 17 37 9 20 - - 0.0
04/02:00am 4.0 -0.7 3.0 93 0.4 ESE 17 33 9 18 - - 0.0
04/01:30am 4.1 -0.6 2.9 92 0.5 ESE 17 28 9 15 - - 0.0
04/01:00am 4.2 -0.5 3.0 92 0.5 SE 17 32 9 17 - - 0.0
04/12:30am 4.3 0.0 3.0 91 0.6 SE 15 41 8 22 - - 0.0
04/12:00am 4.3 0.0 3.0 91 0.6 SE 15 33 8 18 - - 0.0
 
Date/Time
CST
Temp
°C
App
Temp
°C
Dew
Point
°C
Rel
Hum
%
Delta-T
°C
Wind Press
QNH
hPa
Press
MSL
hPa
Rain since
9am
mm
Dir  Spd
km/h
Gust
km/h
Spd
kts
Gust
kts
03/11:30pm 4.3 -0.4 3.0 91 0.6 ESE 17 35 9 19 - - 0.0
03/11:00pm 4.4 0.1 3.1 91 0.6 ESE 15 30 8 16 - - 0.0
03/10:30pm 4.5 -0.2 3.0 90 0.6 ESE 17 26 9 14 - - 0.0
03/10:00pm 4.4 0.0 2.9 90 0.6 ESE 15 28 8 15 - - 0.0
03/09:30pm 4.5 0.1 2.7 88 0.8 SE 15 32 8 17 - - 0.0
03/09:00pm 4.6 0.6 2.9 89 0.7 ESE 13 30 7 16 - - 0.0
03/08:30pm 4.7 0.3 2.9 88 0.8 SE 15 32 8 17 - - 0.0
03/08:00pm 4.7 0.3 2.9 88 0.8 SE 15 32 8 17 - - 0.0
03/07:30pm 4.7 0.0 2.9 88 0.8 ESE 17 39 9 21 - - 0.0
03/07:00pm 4.5 0.2 3.0 90 0.6 ESE 15 32 8 17 - - 0.0
03/06:30pm 4.9 1.4 3.4 90 0.6 SE 11 30 6 16 - - 0.0
03/06:00pm 5.0 1.8 3.0 87 0.9 SE 9 24 5 13 - - 0.0
03/05:30pm 5.2 2.0 3.2 87 0.9 SE 9 22 5 12 - - 0.0
03/05:00pm 5.4 2.2 3.1 85 1.0 SE 9 24 5 13 - - 0.0
03/04:30pm 5.5 2.3 3.2 85 1.0 SE 9 24 5 13 - - 0.0
03/04:00pm 5.8 2.6 3.1 83 1.2 SE 9 26 5 14 - - 0.0
03/03:30pm 6.5 3.3 3.3 80 1.4 SE 9 17 5 9 - - 0.0
03/03:00pm 7.0 3.9 3.8 80 1.4 SE 9 24 5 13 - - 0.0
03/02:30pm 7.2 3.8 4.0 80 1.4 SE 11 26 6 14 - - 0.0
03/02:00pm 7.2 4.2 4.0 80 1.4 SE 9 19 5 10 - - 0.0
03/01:30pm 6.6 3.5 3.8 82 1.2 SE 9 24 5 13 - - 0.0
03/01:00pm 6.2 2.8 4.0 86 1.0 SE 11 28 6 15 - - 0.0
03/12:30pm 6.2 2.5 4.2 87 0.9 SE 13 32 7 17 - - 0.0
03/12:00pm 4.9 0.8 4.5 97 0.2 SE 15 32 8 17 - - 0.0
03/11:30am 4.5 0.4 4.5 100 0.0 SE 15 28 8 15 - - 0.0
03/11:00am 4.0 -0.5 4.0 100 0.0 ESE 17 32 9 17 - - 0.0
03/10:30am 3.7 -0.9 3.7 100 0.0 ESE 17 33 9 18 - - 0.0
03/10:00am 3.5 -1.1 3.5 100 0.0 ESE 17 35 9 19 - - 0.0
03/09:30am 3.5 -1.1 3.5 100 0.0 ESE 17 32 9 17 - - 0.0
03/09:00am 3.4 -0.9 3.4 100 0.0 ESE 15 28 8 15 - - 1.0
03/08:30am 3.2 -1.9 3.2 100 0.0 ESE 19 33 10 18 - - 1.0
03/08:00am 3.1 -1.6 3.1 100 0.0 ESE 17 35 9 19 - - 1.0
03/07:30am 3.0 -1.7 3.0 100 0.0 ESE 17 32 9 17 - - 1.0
03/07:00am 3.2 -1.9 3.2 100 0.0 ESE 19 33 10 18 - - 1.0
03/06:30am 3.5 -1.1 3.5 100 0.0 ESE 17 30 9 16 - - 1.0
03/06:00am 3.5 -0.8 3.5 100 0.0 ESE 15 28 8 15 - - 0.8
03/05:30am 3.7 -0.5 3.7 100 0.0 ESE 15 32 8 17 - - 0.8
03/05:00am 3.8 0.0 3.8 100 0.0 ESE 13 24 7 13 - - 0.8
03/04:30am 3.7 -0.1 3.7 100 0.0 ESE 13 30 7 16 - - 0.6
03/04:00am 3.7 -0.5 3.7 100 0.0 ESE 15 33 8 18 - - 0.6
03/03:30am 4.0 0.6 4.0 100 0.0 SE 11 28 6 15 - - 0.6
03/03:00am 4.1 0.3 4.1 100 0.0 ESE 13 22 7 12 - - 0.6
03/02:30am 4.2 0.5 4.2 100 0.0 ESE 13 22 7 12 - - 0.4
03/02:00am 4.4 1.1 4.4 100 0.0 SE 11 22 6 12 - - 0.4
03/01:30am 4.5 0.8 4.5 100 0.0 ESE 13 28 7 15 - - 0.4
03/01:00am 4.5 1.2 4.5 100 0.0 ESE 11 20 6 11 - - 0.2
03/12:30am 4.5 0.8 4.5 100 0.0 ESE 13 30 7 16 - - 0.2
03/12:00am 4.4 0.3 4.4 100 0.0 ESE 15 30 8 16 - - 0.2
 
Date/Time
CST
Temp
°C
App
Temp
°C
Dew
Point
°C
Rel
Hum
%
Delta-T
°C
Wind Press
QNH
hPa
Press
MSL
hPa
Rain since
9am
mm
Dir  Spd
km/h
Gust
km/h
Spd
kts
Gust
kts
02/11:30pm 4.4 0.3 4.4 100 0.0 ESE 15 24 8 13 - - 0.2
02/11:00pm 4.3 0.2 4.3 100 0.0 ESE 15 24 8 13 - - 0.0
02/10:30pm 4.2 0.5 4.2 100 0.0 ESE 13 30 7 16 - - 0.0
02/10:00pm 4.0 0.2 4.0 100 0.0 ESE 13 26 7 14 - - 0.0
02/09:30pm 4.2 1.2 4.1 99 0.0 ESE 9 20 5 11 - - 0.0
02/09:00pm 4.1 1.5 4.0 99 0.0 ESE 7 17 4 9 - - 0.0
02/08:30pm 4.0 1.0 3.9 99 0.0 SE 9 19 5 10 - - 0.0
02/08:00pm 4.0 1.3 3.9 99 0.0 SE 7 13 4 7 - - 0.0
02/07:30pm 4.0 1.3 3.7 98 0.1 ESE 7 17 4 9 - - 0.0
02/07:00pm 4.0 1.8 3.4 96 0.3 SE 4 9 2 5 - - 0.0
02/06:30pm 4.7 2.6 4.0 95 0.3 ESE 4 13 2 7 - - 0.0
02/06:00pm 5.0 2.9 3.8 92 0.5 SSE 4 7 2 4 - - 0.0
02/05:30pm 5.1 3.0 3.8 91 0.6 SE 4 9 2 5 - - 0.0
02/05:00pm 5.3 3.1 3.6 89 0.7 SE 4 13 2 7 - - 0.0
02/04:30pm 5.5 3.4 3.7 88 0.8 SSE 4 9 2 5 - - 0.0
02/04:00pm 5.6 3.4 3.4 86 1.0 SE 4 9 2 5 - - 0.0
02/03:30pm 5.8 3.6 3.5 85 1.0 SE 4 9 2 5 - - 0.0
02/03:00pm 6.0 3.5 3.7 85 1.0 SE 6 9 3 5 - - 0.0
02/02:30pm 6.1 3.9 3.6 84 1.1 SSE 4 11 2 6 - - 0.0
02/02:00pm 6.2 3.7 3.7 84 1.1 SE 6 11 3 6 - - 0.0
02/01:30pm 6.0 3.3 3.7 85 1.0 ESE 7 13 4 7 - - 0.0
02/01:00pm 5.8 3.3 3.8 87 0.9 SE 6 13 3 7 - - 0.0
02/12:30pm 5.9 3.2 3.6 85 1.0 SE 7 15 4 8 - - 0.0
02/12:00pm 6.4 4.3 4.1 85 1.0 SE 4 9 2 5 - - 0.0
02/11:30am 6.1 3.4 3.9 86 1.0 SE 7 11 4 6 - - 0.0
02/11:00am 5.7 3.0 3.9 88 0.8 ESE 7 17 4 9 - - 0.0
02/10:30am 5.6 3.0 4.1 90 0.7 ESE 7 17 4 9 - - 0.0
02/10:00am 5.4 2.8 4.4 93 0.4 SE 7 17 4 9 - - 0.0
02/09:30am 4.7 1.4 4.6 99 0.0 ESE 11 19 6 10 - - 0.0
02/09:00am 3.8 1.1 3.8 100 0.0 ESE 7 13 4 7 - - 0.0
02/08:30am 3.3 0.1 3.3 100 0.0 ESE 9 17 5 9 - - 0.0
02/08:00am 3.2 0.4 3.1 99 0.0 ESE 7 13 4 7 - - 0.0
02/07:30am 3.1 0.3 3.0 99 0.0 ESE 7 13 4 7 - - 0.0
02/07:00am 3.1 0.3 3.0 99 0.0 ESE 7 13 4 7 - - 0.0
02/06:30am 3.1 0.3 3.0 99 0.0 E 7 15 4 8 - - 0.0
02/06:00am 3.2 0.4 2.9 98 0.1 ESE 7 17 4 9 - - 0.0
02/05:30am 3.1 0.2 2.8 98 0.1 ESE 7 17 4 9 - - 0.0
02/05:00am 3.3 0.1 2.9 97 0.2 ESE 9 17 5 9 - - 0.0
02/04:30am 3.2 -0.5 2.5 95 0.3 ESE 11 22 6 12 - - 0.0
02/04:00am 3.4 0.5 2.5 94 0.4 SE 7 15 4 8 - - 0.0
02/03:30am 3.5 0.8 2.5 93 0.4 ESE 6 13 3 7 - - 0.0
02/03:00am 3.7 1.0 2.5 92 0.5 SE 6 9 3 5 - - 0.0
02/02:30am 3.8 1.1 2.5 91 0.5 SE 6 13 3 7 - - 0.0
02/02:00am 3.8 1.0 2.3 90 0.6 SE 6 15 3 8 - - 0.0
02/01:30am 3.9 1.2 2.4 90 0.6 ESE 6 11 3 6 - - 0.0
02/01:00am 4.0 1.3 2.5 90 0.6 SE 6 11 3 6 - - 0.0
02/12:30am 4.1 1.4 2.8 91 0.6 SE 6 9 3 5 - - 0.0
02/12:00am 4.1 1.4 2.8 91 0.6 SE 6 13 3 7 - - 0.0
 
Date/Time
CST
Temp
°C
App
Temp
°C
Dew
Point
°C
Rel
Hum
%
Delta-T
°C
Wind Press
QNH
hPa
Press
MSL
hPa
Rain since
9am
mm
Dir  Spd
km/h
Gust
km/h
Spd
kts
Gust
kts
01/11:30pm 4.2 1.5 2.9 91 0.6 SE 6 13 3 7 - - 0.0
01/11:00pm 4.3 2.0 3.0 91 0.6 SSE 4 11 2 6 - - 0.0
01/10:30pm 4.3 1.7 3.0 91 0.6 SE 6 17 3 9 - - 0.0
01/10:00pm 4.3 1.7 3.1 92 0.5 SE 6 11 3 6 - - 0.0
01/09:30pm 4.3 1.7 3.0 91 0.6 SE 6 13 3 7 - - 0.0
01/09:00pm 4.4 1.8 3.2 92 0.5 SE 6 13 3 7 - - 0.0
01/08:30pm 4.5 1.7 3.3 92 0.5 ESE 7 15 4 8 - - 0.0
01/08:00pm 4.5 1.3 3.3 92 0.5 ESE 9 26 5 14 - - 0.0
01/07:30pm 4.5 1.3 3.0 90 0.6 ESE 9 22 5 12 - - 0.0
01/07:00pm 4.7 1.9 3.2 90 0.6 SE 7 15 4 8 - - 0.0

Latest Capital City Observations: Canberra | Sydney | Melbourne | Brisbane | Adelaide | Perth | Hobart | Darwin

Other formats

Comma delimited format used in spreadsheet applications
http://www.bom.gov.au/fwo/IDS60901/IDS60901.95678.axf

JavaScript Object Notation format (JSON) in row-major order
http://www.bom.gov.au/fwo/IDS60901/IDS60901.95678.json

Data quality

Most of these data are generated automatically and are frequently updated. Quality checks on data are not normally performed. It is possible for incorrect values to appear. Refer to information at About Latest Weather Observations and please check the disclaimer before using these data.